AAL1426 KSEA-KDFW
Flight info
| Callsign | AAL1426 |
|---|---|
| Flight time | N/A |
| Altitude | 35000 |
| Route | SUMMA2 SUMMA J54 BKE HLE KD60S KD45W PNH MDANO VKTRY2 |
| Aircraft | B752/M-SDE3FGHIM3RWXY/LB1 |
Departure
| Time | N/A |
|---|---|
| Airport | Seattle–Tacoma International Airport (KSEA) |
Arrival
| Time | 2026-05-04 06:48 |
|---|---|
| Airport | Dallas Fort Worth International Airport (KDFW) |
| Time | Latitude | Longitude | Altitude | Speed | Heading |
|---|---|---|---|---|---|
| 2026-05-04 05:34 | 38.58977 | -105.68305 | 35259 ft | 525 kts | 132° |
| 2026-05-04 05:34 | 38.54353 | -105.60985 | 35257 ft | 528 kts | 132° |
| 2026-05-04 05:35 | 38.49706 | -105.53643 | 35241 ft | 528 kts | 133° |
| 2026-05-04 05:35 | 38.45077 | -105.46349 | 35225 ft | 531 kts | 133° |
| 2026-05-04 05:36 | 38.40401 | -105.38996 | 35216 ft | 532 kts | 132° |
| 2026-05-04 05:36 | 38.35695 | -105.31612 | 35202 ft | 533 kts | 133° |
| 2026-05-04 05:37 | 38.31047 | -105.24338 | 35209 ft | 531 kts | 134° |
| 2026-05-04 05:37 | 38.26354 | -105.17010 | 35191 ft | 535 kts | 134° |
| 2026-05-04 05:38 | 38.19277 | -105.05990 | 35170 ft | 535 kts | 133° |
| 2026-05-04 05:38 | 38.14531 | -104.98618 | 35156 ft | 536 kts | 133° |
| 2026-05-04 05:39 | 38.07436 | -104.87630 | 35146 ft | 535 kts | 134° |
| 2026-05-04 05:40 | 38.00350 | -104.76698 | 35109 ft | 538 kts | 134° |
| 2026-05-04 05:40 | 37.95590 | -104.69370 | 35099 ft | 539 kts | 135° |
| 2026-05-04 05:41 | 37.90810 | -104.62028 | 35090 ft | 536 kts | 134° |
| 2026-05-04 05:41 | 37.86026 | -104.54703 | 35108 ft | 540 kts | 133° |
| 2026-05-04 05:42 | 37.81253 | -104.47403 | 35113 ft | 538 kts | 134° |
| 2026-05-04 05:42 | 37.76465 | -104.40102 | 35113 ft | 540 kts | 134° |
| 2026-05-04 05:43 | 37.71662 | -104.32792 | 35104 ft | 537 kts | 134° |
| 2026-05-04 05:45 | 37.52426 | -104.03682 | 35054 ft | 541 kts | 135° |
| 2026-05-04 05:47 | 37.30068 | -103.79044 | 35058 ft | 536 kts | 146° |
| 2026-05-04 05:47 | 37.24309 | -103.73006 | 35062 ft | 536 kts | 146° |
| 2026-05-04 05:48 | 37.18581 | -103.67012 | 35076 ft | 537 kts | 146° |
| 2026-05-04 05:48 | 37.12789 | -103.60967 | 35065 ft | 538 kts | 147° |
| 2026-05-04 05:49 | 37.07035 | -103.54977 | 35068 ft | 541 kts | 146° |
| 2026-05-04 05:49 | 37.01230 | -103.48940 | 35045 ft | 541 kts | 147° |
| 2026-05-04 05:51 | 36.77908 | -103.24823 | 35034 ft | 540 kts | 147° |
| 2026-05-04 05:52 | 36.72135 | -103.18885 | 35031 ft | 539 kts | 147° |
| 2026-05-04 05:52 | 36.66321 | -103.12915 | 35020 ft | 539 kts | 147° |
| 2026-05-04 05:54 | 36.43194 | -102.89285 | 34998 ft | 536 kts | 147° |
| 2026-05-04 05:55 | 36.37443 | -102.83442 | 34990 ft | 537 kts | 147° |
| 2026-05-04 05:55 | 36.31655 | -102.77570 | 34979 ft | 537 kts | 147° |
| 2026-05-04 05:56 | 36.25894 | -102.71737 | 34990 ft | 536 kts | 147° |
| 2026-05-04 05:56 | 36.20129 | -102.65909 | 34978 ft | 535 kts | 146° |
| 2026-05-04 05:57 | 36.14393 | -102.60125 | 34966 ft | 535 kts | 147° |
| 2026-05-04 05:57 | 36.08621 | -102.54316 | 34942 ft | 534 kts | 147° |
| 2026-05-04 05:58 | 36.02856 | -102.48524 | 34933 ft | 534 kts | 146° |
| 2026-05-04 05:58 | 35.97110 | -102.42762 | 34945 ft | 535 kts | 147° |
| 2026-05-04 05:59 | 35.91347 | -102.36996 | 34971 ft | 535 kts | 146° |
| 2026-05-04 05:59 | 35.85550 | -102.31203 | 34955 ft | 532 kts | 147° |
| 2026-05-04 06:00 | 35.79803 | -102.25476 | 34958 ft | 534 kts | 147° |
| 2026-05-04 06:00 | 35.74018 | -102.19720 | 34944 ft | 532 kts | 147° |
| 2026-05-04 06:01 | 35.68302 | -102.14043 | 34936 ft | 531 kts | 147° |
| 2026-05-04 06:03 | 35.45269 | -101.91280 | 34955 ft | 531 kts | 147° |
| 2026-05-04 06:05 | 35.20901 | -101.63796 | 34993 ft | 547 kts | 118° |
| 2026-05-04 06:06 | 35.17484 | -101.55471 | 34988 ft | 545 kts | 118° |
| 2026-05-04 06:06 | 35.14062 | -101.47230 | 35004 ft | 545 kts | 118° |
| 2026-05-04 06:07 | 35.10639 | -101.39021 | 35003 ft | 545 kts | 118° |
| 2026-05-04 06:07 | 35.07190 | -101.30779 | 34972 ft | 545 kts | 118° |
| 2026-05-04 06:08 | 35.03722 | -101.22516 | 34969 ft | 546 kts | 118° |
| 2026-05-04 06:08 | 35.00263 | -101.14290 | 34971 ft | 545 kts | 118° |
| 2026-05-04 06:09 | 34.96796 | -101.06072 | 34964 ft | 546 kts | 118° |
| 2026-05-04 06:11 | 34.82884 | -100.73277 | 34953 ft | 545 kts | 118° |
| 2026-05-04 06:13 | 34.68810 | -100.40426 | 34954 ft | 546 kts | 118° |
| 2026-05-04 06:14 | 34.56472 | -100.11884 | 34945 ft | 546 kts | 119° |
| 2026-05-04 06:15 | 34.52921 | -100.03712 | 34937 ft | 545 kts | 119° |
| 2026-05-04 06:15 | 34.49381 | -99.95588 | 34938 ft | 545 kts | 120° |
| 2026-05-04 06:16 | 34.45825 | -99.87444 | 34940 ft | 545 kts | 119° |
| 2026-05-04 06:16 | 34.42255 | -99.79288 | 34935 ft | 544 kts | 119° |
| 2026-05-04 06:17 | 34.38704 | -99.71195 | 34930 ft | 545 kts | 119° |
| 2026-05-04 06:17 | 34.35157 | -99.63130 | 34933 ft | 543 kts | 119° |
| 2026-05-04 06:18 | 34.31546 | -99.55093 | 34942 ft | 543 kts | 121° |
| 2026-05-04 06:20 | 34.16444 | -99.23431 | 34923 ft | 540 kts | 122° |
| 2026-05-04 06:20 | 34.14576 | -99.19528 | 34908 ft | 528 kts | 122° |
| 2026-05-04 06:21 | 34.07435 | -99.04659 | 33381 ft | 509 kts | 122° |
| 2026-05-04 06:21 | 34.05680 | -99.01012 | 32734 ft | 511 kts | 122° |
| 2026-05-04 06:22 | 34.03873 | -98.97263 | 32116 ft | 510 kts | 122° |
| 2026-05-04 06:22 | 34.02095 | -98.93581 | 31493 ft | 511 kts | 122° |
| 2026-05-04 06:25 | 33.80103 | -98.48441 | 22907 ft | 448 kts | 121° |
| 2026-05-04 06:25 | 33.78521 | -98.45199 | 22375 ft | 445 kts | 121° |
| 2026-05-04 06:26 | 33.76963 | -98.42006 | 21838 ft | 443 kts | 121° |
| 2026-05-04 06:26 | 33.75414 | -98.38838 | 21285 ft | 441 kts | 121° |
| 2026-05-04 06:26 | 33.73855 | -98.35652 | 20726 ft | 438 kts | 121° |
| 2026-05-04 06:26 | 33.72301 | -98.32477 | 20226 ft | 433 kts | 122° |
| 2026-05-04 06:27 | 33.66287 | -98.20221 | 18321 ft | 416 kts | 122° |
| 2026-05-04 06:28 | 33.64848 | -98.17293 | 17869 ft | 412 kts | 122° |
| 2026-05-04 06:28 | 33.63388 | -98.14336 | 17260 ft | 412 kts | 123° |
| 2026-05-04 06:28 | 33.61954 | -98.11446 | 17055 ft | 396 kts | 122° |
| 2026-05-04 06:28 | 33.60550 | -98.08619 | 16529 ft | 390 kts | 123° |
| 2026-05-04 06:29 | 33.59172 | -98.05846 | 16054 ft | 382 kts | 123° |
| 2026-05-04 06:29 | 33.57819 | -98.03126 | 15642 ft | 374 kts | 123° |
| 2026-05-04 06:29 | 33.56477 | -98.00433 | 15287 ft | 370 kts | 123° |
| 2026-05-04 06:29 | 33.55152 | -97.97778 | 14919 ft | 372 kts | 123° |
| 2026-05-04 06:30 | 33.53828 | -97.95125 | 14367 ft | 375 kts | 123° |
| 2026-05-04 06:30 | 33.52488 | -97.92437 | 13838 ft | 368 kts | 123° |
| 2026-05-04 06:30 | 33.51214 | -97.89878 | 13819 ft | 347 kts | 123° |
| 2026-05-04 06:30 | 33.49974 | -97.87389 | 13523 ft | 350 kts | 123° |
| 2026-05-04 06:31 | 33.48733 | -97.84900 | 13105 ft | 352 kts | 123° |
| 2026-05-04 06:31 | 33.47469 | -97.82363 | 12648 ft | 351 kts | 123° |
| 2026-05-04 06:31 | 33.46199 | -97.79817 | 12191 ft | 349 kts | 123° |
| 2026-05-04 06:31 | 33.44956 | -97.77325 | 11763 ft | 347 kts | 123° |
| 2026-05-04 06:32 | 33.43702 | -97.74812 | 11337 ft | 345 kts | 123° |
| 2026-05-04 06:33 | 33.35189 | -97.58980 | 9622 ft | 308 kts | 128° |
| 2026-05-04 06:34 | 33.33918 | -97.56914 | 9250 ft | 306 kts | 128° |
| 2026-05-04 06:34 | 33.32657 | -97.54865 | 8891 ft | 302 kts | 129° |
| 2026-05-04 06:34 | 33.31434 | -97.52878 | 8585 ft | 296 kts | 129° |
| 2026-05-04 06:34 | 33.30213 | -97.50897 | 8361 ft | 287 kts | 129° |
| 2026-05-04 06:35 | 33.29033 | -97.48980 | 8069 ft | 285 kts | 129° |
| 2026-05-04 06:36 | 33.26521 | -97.32877 | 5908 ft | 280 kts | 96° |
| 2026-05-04 06:37 | 33.26397 | -97.30543 | 5649 ft | 276 kts | 96° |
| 2026-05-04 06:37 | 33.26275 | -97.28254 | 5434 ft | 275 kts | 97° |
| 2026-05-04 06:37 | 33.26150 | -97.25927 | 5059 ft | 280 kts | 97° |
| 2026-05-04 06:37 | 33.26039 | -97.23651 | 4952 ft | 267 kts | 97° |
| 2026-05-04 06:38 | 33.25951 | -97.21486 | 4822 ft | 262 kts | 97° |
| 2026-05-04 06:38 | 33.25862 | -97.19321 | 4616 ft | 256 kts | 97° |
| 2026-05-04 06:40 | 33.24380 | -97.05813 | 3998 ft | 215 kts | 155° |
| 2026-05-04 06:40 | 33.22982 | -97.05397 | 4030 ft | 207 kts | 184° |
| 2026-05-04 06:40 | 33.21521 | -97.05407 | 3977 ft | 208 kts | 183° |
| 2026-05-04 06:40 | 33.20094 | -97.05388 | 3969 ft | 203 kts | 183° |
| 2026-05-04 06:41 | 33.18665 | -97.05379 | 3975 ft | 203 kts | 184° |
| 2026-05-04 06:41 | 33.17238 | -97.05376 | 3978 ft | 205 kts | 184° |
| 2026-05-04 06:41 | 33.15805 | -97.05373 | 3974 ft | 205 kts | 184° |
| 2026-05-04 06:41 | 33.14376 | -97.05373 | 3976 ft | 204 kts | 184° |
| 2026-05-04 06:42 | 33.12935 | -97.05376 | 3975 ft | 204 kts | 184° |
| 2026-05-04 06:42 | 33.11540 | -97.05376 | 3962 ft | 195 kts | 184° |
| 2026-05-04 06:42 | 33.10222 | -97.05377 | 3976 ft | 181 kts | 184° |
| 2026-05-04 06:44 | 33.02426 | -97.05417 | 2711 ft | 153 kts | 184° |
| 2026-05-04 06:44 | 33.01345 | -97.05423 | 2499 ft | 150 kts | 183° |
| 2026-05-04 06:44 | 33.00347 | -97.05423 | 2307 ft | 133 kts | 184° |
| 2026-05-04 06:45 | 32.99455 | -97.05429 | 2135 ft | 123 kts | 183° |
| 2026-05-04 06:45 | 32.98593 | -97.05437 | 2011 ft | 122 kts | 184° |
| 2026-05-04 06:45 | 32.97755 | -97.05439 | 1825 ft | 119 kts | 184° |
| 2026-05-04 06:45 | 32.96920 | -97.05443 | 1664 ft | 117 kts | 182° |
| 2026-05-04 06:46 | 32.96199 | -97.05444 | 1502 ft | 115 kts | 183° |
| 2026-05-04 06:46 | 32.95386 | -97.05447 | 1359 ft | 117 kts | 181° |
| 2026-05-04 06:46 | 32.94570 | -97.05450 | 1218 ft | 119 kts | 181° |
| 2026-05-04 06:46 | 32.93728 | -97.05446 | 1044 ft | 121 kts | 181° |
| 2026-05-04 06:48 | 32.89510 | -97.05353 | 604 ft | 17 kts | 150° |
| 2026-05-04 06:48 | 32.89415 | -97.05270 | 601 ft | 17 kts | 119° |
| 2026-05-04 06:49 | 32.89403 | -97.05122 | 600 ft | 18 kts | 89° |
| 2026-05-04 06:50 | 32.89774 | -97.04887 | 607 ft | 16 kts | 0° |
| 2026-05-04 06:51 | 32.89896 | -97.04887 | 609 ft | 17 kts | 0° |
| 2026-05-04 06:51 | 32.90019 | -97.04886 | 611 ft | 17 kts | 0° |
| 2026-05-04 06:51 | 32.90143 | -97.04885 | 611 ft | 18 kts | 1° |
| 2026-05-04 06:51 | 32.90263 | -97.04885 | 611 ft | 12 kts | 360° |
| 2026-05-04 06:52 | 32.90328 | -97.04851 | 611 ft | 10 kts | 64° |
| 2026-05-04 06:52 | 32.90335 | -97.04751 | 609 ft | 13 kts | 90° |
| 2026-05-04 06:52 | 32.90336 | -97.04678 | 607 ft | 0 kts | 87° |
| 2026-05-04 06:52 | 32.90337 | -97.04665 | 607 ft | 5 kts | 90° |
| 2026-05-04 06:53 | 32.90311 | -97.04620 | 606 ft | 9 kts | 148° |
| 2026-05-04 06:53 | 32.90245 | -97.04562 | 605 ft | 13 kts | 135° |
| 2026-05-04 06:53 | 32.90174 | -97.04477 | 603 ft | 13 kts | 135° |
| 2026-05-04 06:53 | 32.90118 | -97.04394 | 601 ft | 13 kts | 134° |
| 2026-05-04 06:54 | 32.90052 | -97.04366 | 599 ft | 7 kts | 176° |
| 2026-05-04 06:54 | 32.90007 | -97.04363 | 598 ft | 3 kts | 176° |
| 2026-05-04 06:54 | 32.90002 | -97.04362 | 598 ft | 0 kts | 176° |